createdAt,value
2016-10-19T00:00:37.785Z,898.16
2016-10-19T00:01:37.770Z,899.22
2016-10-19T00:02:38.303Z,899.93
2016-10-19T00:03:37.780Z,900.74
2016-10-19T00:04:37.810Z,901.09
2016-10-19T00:05:37.781Z,901.95
2016-10-19T00:06:37.813Z,902.87
2016-10-19T00:07:37.805Z,903.64
2016-10-19T00:08:37.774Z,903.83
2016-10-19T00:09:37.778Z,905.07
2016-10-19T00:10:37.784Z,905.8
2016-10-19T00:11:37.790Z,906.93
2016-10-19T00:12:37.822Z,907.96
2016-10-19T00:13:37.815Z,908.92
2016-10-19T00:14:37.781Z,909.63
2016-10-19T00:15:37.793Z,910.52
2016-10-19T00:16:37.797Z,911.12
2016-10-19T00:17:37.809Z,911.86
2016-10-19T00:18:37.806Z,912.93
2016-10-19T00:19:37.837Z,913.29
2016-10-19T00:20:38.560Z,914.13
2016-10-19T00:21:38.027Z,914.54
2016-10-19T00:22:37.818Z,915.15
2016-10-19T00:23:37.805Z,915.86
2016-10-19T00:24:37.922Z,917.44
2016-10-19T00:25:37.857Z,918.18
2016-10-19T00:26:37.800Z,919.19
2016-10-19T00:27:37.813Z,919.7
2016-10-19T00:28:37.820Z,920.53
2016-10-19T00:29:37.824Z,921.75
2016-10-19T00:30:37.811Z,922.49
2016-10-19T00:31:37.795Z,923.23
2016-10-19T00:32:37.821Z,923.78
2016-10-19T00:33:38.093Z,924.91
2016-10-19T00:34:37.801Z,925.58
2016-10-19T00:35:37.792Z,926.7
2016-10-19T00:36:37.811Z,927.46
2016-10-19T00:37:37.833Z,928.85
2016-10-19T00:38:37.810Z,929.3
2016-10-19T00:39:37.807Z,930.52
2016-10-19T00:40:37.798Z,930.94
2016-10-19T00:41:37.809Z,931.97
2016-10-19T00:42:37.814Z,932.55
2016-10-19T00:43:37.831Z,933.3
2016-10-19T00:44:37.811Z,933.91
2016-10-19T00:45:37.803Z,933.99
2016-10-19T00:46:37.810Z,934.44
2016-10-19T00:47:38.822Z,935.2
2016-10-19T00:48:37.810Z,935.68
2016-10-19T00:49:37.824Z,935.69
2016-10-19T00:50:37.796Z,936.12
2016-10-19T00:51:37.819Z,936.54
2016-10-19T00:52:37.838Z,936
2016-10-19T00:53:37.816Z,936.38
2016-10-19T00:54:37.807Z,936.16
2016-10-19T00:55:37.828Z,935.72
2016-10-19T00:56:37.838Z,936.09
2016-10-19T00:57:37.874Z,935.64
2016-10-19T00:58:37.818Z,935.33
2016-10-19T00:59:37.944Z,935.12
2016-10-19T01:00:38.023Z,934.42
2016-10-19T01:01:38.479Z,933.62
2016-10-19T01:02:38.309Z,933.34
2016-10-19T01:03:37.895Z,932.6
2016-10-19T01:04:37.828Z,931.89
2016-10-19T01:05:37.911Z,930.74
2016-10-19T01:06:37.824Z,930.74
2016-10-19T01:07:37.848Z,929.87
2016-10-19T01:08:37.831Z,929.19
2016-10-19T01:09:37.823Z,926.98
2016-10-19T01:10:37.819Z,925.04
2016-10-19T01:11:37.828Z,923.1
2016-10-19T01:12:37.836Z,921.67
2016-10-19T01:13:38.046Z,919.94
2016-10-19T01:14:38.895Z,918.01
2016-10-19T01:15:37.821Z,915.61
2016-10-19T01:16:37.827Z,913.35
2016-10-19T01:17:38.341Z,910.61
2016-10-19T01:18:37.849Z,908.66
2016-10-19T01:19:37.890Z,906.02
2016-10-19T01:20:38.630Z,904.32
2016-10-19T01:21:37.828Z,902.65
2016-10-19T01:22:37.844Z,900.68
2016-10-19T01:23:37.844Z,898.67
2016-10-19T01:24:37.918Z,896.49
2016-10-19T01:25:37.861Z,895.23
2016-10-19T01:26:37.844Z,893.23
2016-10-19T01:27:37.850Z,891.69
2016-10-19T01:28:37.834Z,889.52
2016-10-19T01:29:37.940Z,887.54
2016-10-19T01:30:37.861Z,886.84
2016-10-19T01:31:37.828Z,885.7
2016-10-19T01:32:37.860Z,884.54
2016-10-19T01:33:37.837Z,883.79
2016-10-19T01:34:37.842Z,883.11
2016-10-19T01:35:37.835Z,882.17
2016-10-19T01:36:37.847Z,881.1
2016-10-19T01:37:37.851Z,880.23
2016-10-19T01:38:37.849Z,879.73
2016-10-19T01:39:37.852Z,878.81
2016-10-19T01:40:37.841Z,877.11
2016-10-19T01:41:37.848Z,876.35
2016-10-19T01:42:37.854Z,875.18
2016-10-19T01:43:37.866Z,873.63
2016-10-19T01:44:37.858Z,872.59
2016-10-19T01:45:37.835Z,871.3
2016-10-19T01:46:37.860Z,870.1
2016-10-19T01:47:37.940Z,867.95
2016-10-19T01:48:37.850Z,867.35
2016-10-19T01:49:37.852Z,866.08
2016-10-19T01:50:37.917Z,864.22
2016-10-19T01:51:37.848Z,863.56
2016-10-19T01:52:37.860Z,862.48
2016-10-19T01:53:37.850Z,862.06
2016-10-19T01:54:37.844Z,860.89
2016-10-19T01:55:37.860Z,860.38
2016-10-19T01:56:38.468Z,859.65
2016-10-19T01:57:37.876Z,858.96
2016-10-19T01:58:37.857Z,858.59
2016-10-19T01:59:37.863Z,857.89
2016-10-19T02:00:37.858Z,857.18
2016-10-19T02:01:37.863Z,856.97
2016-10-19T02:02:37.898Z,856.51
2016-10-19T02:03:37.873Z,855.82
2016-10-19T02:04:37.858Z,855.84
2016-10-19T02:05:37.860Z,854.96
2016-10-19T02:06:37.883Z,854.68
2016-10-19T02:07:37.877Z,854.16
2016-10-19T02:08:37.905Z,854.24
2016-10-19T02:09:37.870Z,853.87
2016-10-19T02:10:37.888Z,852.39
2016-10-19T02:11:37.882Z,852.43
2016-10-19T02:12:37.885Z,851.38
2016-10-19T02:13:37.869Z,850.85
2016-10-19T02:14:37.905Z,850.27
2016-10-19T02:15:37.889Z,850.31
2016-10-19T02:16:37.881Z,849.73
2016-10-19T02:17:37.890Z,849.56
2016-10-19T02:18:37.873Z,849.3
2016-10-19T02:19:37.879Z,848.97
2016-10-19T02:20:37.886Z,848.97
2016-10-19T02:21:37.870Z,848.26
2016-10-19T02:22:37.881Z,848.42
2016-10-19T02:23:37.874Z,848.08
2016-10-19T02:24:37.874Z,847.95
2016-10-19T02:25:37.889Z,847.67
2016-10-19T02:26:37.889Z,847.64
2016-10-19T02:27:37.913Z,847.02
2016-10-19T02:28:37.892Z,846.89
2016-10-19T02:29:37.894Z,846.63
2016-10-19T02:30:37.900Z,846.22
2016-10-19T02:31:37.911Z,845.94
2016-10-19T02:32:37.932Z,846.06
2016-10-19T02:33:37.905Z,844.73
2016-10-19T02:34:37.892Z,844.45
2016-10-19T02:35:37.921Z,843.67
2016-10-19T02:36:37.907Z,843.38
2016-10-19T02:37:37.897Z,843.33
2016-10-19T02:38:37.886Z,843.64
2016-10-19T02:39:37.880Z,843.73
2016-10-19T02:40:37.897Z,844.12
2016-10-19T02:41:37.893Z,843.96
2016-10-19T02:42:37.910Z,845.02
2016-10-19T02:43:37.881Z,845.43
2016-10-19T02:44:37.923Z,846.1
2016-10-19T02:45:37.896Z,846.58
2016-10-19T02:46:38.127Z,846.71
2016-10-19T02:47:37.908Z,847.56
2016-10-19T02:48:37.914Z,848.13
2016-10-19T02:49:37.898Z,849.15
2016-10-19T02:50:37.909Z,849.39
2016-10-19T02:51:37.907Z,849.7
2016-10-19T02:52:37.924Z,850.57
2016-10-19T02:53:37.904Z,851.24
2016-10-19T02:54:37.904Z,851.45
2016-10-19T02:55:37.896Z,851.88
2016-10-19T02:56:37.898Z,853.14
2016-10-19T02:57:37.925Z,853.19
2016-10-19T02:58:37.900Z,853.98
2016-10-19T02:59:37.915Z,853.62
2016-10-19T03:00:37.895Z,854.16
2016-10-19T03:01:37.908Z,854.85
2016-10-19T03:02:37.923Z,855.54
2016-10-19T03:03:37.908Z,856.44
2016-10-19T03:04:37.910Z,856.78
2016-10-19T03:05:37.915Z,857.38
2016-10-19T03:06:37.918Z,859.02
2016-10-19T03:07:37.925Z,859.06
2016-10-19T03:08:37.912Z,860.34
2016-10-19T03:09:37.904Z,860.63
2016-10-19T03:10:37.921Z,860.73
2016-10-19T03:11:37.914Z,861.96
2016-10-19T03:12:37.935Z,862.83
2016-10-19T03:13:37.935Z,863.74
2016-10-19T03:14:37.924Z,864.59
2016-10-19T03:15:37.921Z,864.85
2016-10-19T03:16:37.931Z,865.23
2016-10-19T03:17:37.940Z,865.48
2016-10-19T03:18:37.930Z,866
2016-10-19T03:19:37.945Z,865.19
2016-10-19T03:20:37.923Z,864.59
2016-10-19T03:21:37.916Z,864.21
2016-10-19T03:22:37.924Z,862.62
2016-10-19T03:23:37.944Z,860.99
2016-10-19T03:24:37.932Z,859.45
2016-10-19T03:25:37.928Z,857.63
2016-10-19T03:26:37.934Z,855.84
2016-10-19T03:27:37.963Z,854.04
2016-10-19T03:28:37.935Z,852.35
2016-10-19T03:29:37.936Z,850.93
2016-10-19T03:30:37.925Z,849.22
2016-10-19T03:31:37.926Z,848.09
2016-10-19T03:32:37.948Z,846.96
2016-10-19T03:33:37.942Z,844.76
2016-10-19T03:34:37.933Z,842.63
2016-10-19T03:35:37.939Z,841.65
2016-10-19T03:36:37.936Z,839.8
2016-10-19T03:37:37.948Z,838.09
2016-10-19T03:38:37.931Z,836.64
2016-10-19T03:39:37.952Z,835.18
2016-10-19T03:40:37.956Z,834.59
2016-10-19T03:41:37.964Z,833.57
2016-10-19T03:42:37.968Z,833.39
2016-10-19T03:43:37.943Z,833.71
2016-10-19T03:44:37.947Z,834.09
2016-10-19T03:45:37.955Z,834.25
2016-10-19T03:46:37.936Z,834.97
2016-10-19T03:47:37.979Z,835.53
2016-10-19T03:48:37.975Z,835.5
2016-10-19T03:49:37.949Z,835.52
2016-10-19T03:50:37.935Z,835.54
2016-10-19T03:51:37.957Z,835.19
2016-10-19T03:52:38.840Z,833.84
2016-10-19T03:53:37.959Z,834
2016-10-19T03:54:37.960Z,833.49
2016-10-19T03:55:37.944Z,832.76
2016-10-19T03:56:37.951Z,832.72
2016-10-19T03:57:37.941Z,832.42
2016-10-19T03:58:37.947Z,832.56
2016-10-19T03:59:37.954Z,831.96
2016-10-19T04:00:37.976Z,832.1
2016-10-19T04:01:38.248Z,831.91
2016-10-19T04:02:37.975Z,832.06
2016-10-19T04:03:37.953Z,832.08
2016-10-19T04:04:37.963Z,831.63
2016-10-19T04:05:37.953Z,832.05
2016-10-19T04:06:37.960Z,831.69
2016-10-19T04:07:37.948Z,831.41
2016-10-19T04:08:37.958Z,831.59
2016-10-19T04:09:37.963Z,831.63
2016-10-19T04:10:37.970Z,831.87
2016-10-19T04:11:37.964Z,831
2016-10-19T04:12:37.954Z,831.21
2016-10-19T04:13:37.946Z,831.48
2016-10-19T04:14:37.977Z,831.89
2016-10-19T04:15:37.974Z,832.37
2016-10-19T04:16:37.970Z,833.22
2016-10-19T04:17:37.973Z,833.76
2016-10-19T04:18:37.967Z,834.8
2016-10-19T04:19:37.986Z,835.65
2016-10-19T04:20:37.992Z,836.55
2016-10-19T04:21:37.973Z,837.04
2016-10-19T04:22:37.977Z,838.03
2016-10-19T04:23:37.984Z,839.8
2016-10-19T04:24:37.989Z,840.17
2016-10-19T04:25:37.969Z,841.88
2016-10-19T04:26:37.983Z,842.72
2016-10-19T04:27:37.981Z,843.9
2016-10-19T04:28:38.003Z,844.75
2016-10-19T04:29:37.973Z,845.57
2016-10-19T04:30:37.981Z,846.32
2016-10-19T04:31:37.975Z,847.09
2016-10-19T04:32:37.970Z,848.23
2016-10-19T04:33:37.998Z,848.68
2016-10-19T04:34:38.006Z,849.31
2016-10-19T04:35:37.996Z,849.65
2016-10-19T04:36:37.975Z,849.6
2016-10-19T04:37:37.996Z,849.86
2016-10-19T04:38:38.007Z,850.23
2016-10-19T04:39:37.987Z,851.19
2016-10-19T04:40:37.987Z,851.93
2016-10-19T04:41:38.000Z,851.67
2016-10-19T04:42:37.997Z,851.64
2016-10-19T04:43:37.993Z,852.24
2016-10-19T04:44:37.984Z,852.23
2016-10-19T04:45:37.998Z,852.13
2016-10-19T04:46:38.009Z,851.99
2016-10-19T04:47:38.000Z,852.02
2016-10-19T04:48:38.020Z,851.1
2016-10-19T04:49:37.991Z,851.1
2016-10-19T04:50:38.000Z,850.5
2016-10-19T04:51:38.015Z,850.59
2016-10-19T04:52:38.004Z,850.04
2016-10-19T04:53:38.008Z,849.9
2016-10-19T04:54:38.004Z,849.52
2016-10-19T04:55:37.984Z,849.13
2016-10-19T04:56:38.003Z,849.43
2016-10-19T04:57:38.013Z,848.62
2016-10-19T04:58:38.004Z,848.93
2016-10-19T04:59:38.030Z,848.48
2016-10-19T05:00:38.005Z,848.57
2016-10-19T05:01:38.008Z,848.88
2016-10-19T05:02:38.009Z,849.18
2016-10-19T05:03:38.002Z,849.71
2016-10-19T05:04:38.015Z,849.88
2016-10-19T05:05:38.005Z,850.66
2016-10-19T05:06:38.003Z,851.67
2016-10-19T05:07:38.004Z,852.64
2016-10-19T05:08:38.009Z,853.75
2016-10-19T05:09:38.032Z,854.18
2016-10-19T05:10:38.001Z,855
2016-10-19T05:11:38.003Z,855.47
2016-10-19T05:12:38.006Z,856.19
2016-10-19T05:13:38.017Z,856.91
2016-10-19T05:14:38.018Z,857.75
2016-10-19T05:15:38.011Z,857.97
2016-10-19T05:16:38.018Z,858.67
2016-10-19T05:17:38.001Z,859.18
2016-10-19T05:18:38.836Z,859.18
2016-10-19T05:19:38.023Z,860.17
2016-10-19T05:20:38.471Z,860.94
2016-10-19T05:21:38.918Z,861.18
2016-10-19T05:22:38.017Z,862.22
2016-10-19T05:23:38.055Z,862.52
2016-10-19T05:24:38.017Z,863.57
2016-10-19T05:25:38.007Z,864.25
2016-10-19T05:26:38.061Z,864.67
2016-10-19T05:27:38.014Z,865.06
2016-10-19T05:28:38.035Z,866.49
2016-10-19T05:29:38.109Z,866.68
2016-10-19T05:30:38.046Z,867.57
2016-10-19T05:31:38.023Z,867.94
2016-10-19T05:32:38.038Z,868.57
2016-10-19T05:33:38.014Z,869.46
2016-10-19T05:34:38.366Z,870.48
2016-10-19T05:35:38.038Z,871.04
2016-10-19T05:36:38.305Z,871.55
2016-10-19T05:37:38.033Z,872.13
2016-10-19T05:38:38.014Z,872.85
2016-10-19T05:39:38.021Z,873.79
2016-10-19T05:40:38.027Z,874.22
2016-10-19T05:41:38.020Z,874.82
2016-10-19T05:42:38.036Z,875.16
2016-10-19T05:43:38.061Z,876.03
2016-10-19T05:44:38.033Z,876.28
2016-10-19T05:45:38.039Z,876.65
2016-10-19T05:46:38.039Z,876.57
2016-10-19T05:47:38.034Z,877.11
2016-10-19T05:48:38.059Z,876.92
2016-10-19T05:49:38.049Z,877.06
2016-10-19T05:50:38.053Z,877.08
2016-10-19T05:51:38.057Z,876.95
2016-10-19T05:52:38.039Z,877.24
2016-10-19T05:53:38.059Z,877.66
2016-10-19T05:54:38.180Z,877.43
2016-10-19T05:55:38.045Z,877.95
2016-10-19T05:56:38.059Z,878.05
2016-10-19T05:57:38.054Z,878.33
2016-10-19T05:58:38.046Z,878.18
2016-10-19T05:59:38.070Z,878.7
2016-10-19T06:00:38.996Z,878.26
2016-10-19T06:01:38.067Z,878.51
2016-10-19T06:02:38.075Z,878.61
2016-10-19T06:03:38.039Z,878.88
2016-10-19T06:04:38.058Z,879.03
2016-10-19T06:05:38.038Z,879.44
2016-10-19T06:06:38.045Z,879.31
2016-10-19T06:07:38.734Z,879.49
2016-10-19T06:08:38.039Z,880.75
2016-10-19T06:09:38.044Z,880.66
2016-10-19T06:10:38.042Z,882.01
2016-10-19T06:11:38.064Z,882.41
2016-10-19T06:12:38.051Z,882.86
2016-10-19T06:13:38.573Z,883.04
2016-10-19T06:14:38.070Z,883.61
2016-10-19T06:15:38.062Z,883.88
2016-10-19T06:16:38.064Z,883.89
2016-10-19T06:17:38.054Z,884.65
2016-10-19T06:18:38.068Z,884.89
2016-10-19T06:19:38.070Z,885.16
2016-10-19T06:20:38.075Z,885.53
2016-10-19T06:21:38.077Z,885.63
2016-10-19T06:22:38.138Z,886.02
2016-10-19T06:23:38.072Z,885.97
2016-10-19T06:24:38.050Z,887.18
2016-10-19T06:25:38.077Z,887.47
2016-10-19T06:26:38.077Z,888.12
2016-10-19T06:27:38.069Z,887.84
2016-10-19T06:28:38.075Z,889.32
2016-10-19T06:29:38.070Z,889.74
2016-10-19T06:30:38.109Z,889.76
2016-10-19T06:31:38.099Z,890.51
2016-10-19T06:32:38.075Z,890.24
2016-10-19T06:33:38.094Z,890.17
2016-10-19T06:34:38.067Z,890.78
2016-10-19T06:35:38.090Z,890.62
2016-10-19T06:36:38.096Z,891.96
2016-10-19T06:37:38.103Z,892.39
2016-10-19T06:38:38.090Z,892.69
2016-10-19T06:39:38.080Z,893.33
2016-10-19T06:40:38.080Z,893.19
2016-10-19T06:41:38.089Z,892.77
2016-10-19T06:42:38.068Z,893.96
2016-10-19T06:43:38.097Z,893.98
2016-10-19T06:44:38.080Z,894.61
2016-10-19T06:45:38.079Z,894.81
2016-10-19T06:46:38.078Z,895.29
2016-10-19T06:47:38.084Z,896.42
2016-10-19T06:48:38.131Z,897.03
2016-10-19T06:49:38.109Z,897.7
2016-10-19T06:50:38.078Z,897.97
2016-10-19T06:51:38.089Z,898.03
2016-10-19T06:52:38.089Z,897.95
2016-10-19T06:53:38.099Z,897.47
2016-10-19T06:54:38.089Z,897.59
2016-10-19T06:55:38.087Z,897.92
2016-10-19T06:56:38.115Z,897.97
2016-10-19T06:57:38.121Z,898.37
2016-10-19T06:58:38.128Z,898.82
2016-10-19T06:59:38.116Z,898.76
2016-10-19T07:00:38.107Z,898.82
2016-10-19T07:01:38.106Z,899.88
2016-10-19T07:02:38.103Z,900.26
2016-10-19T07:03:38.108Z,900.98
2016-10-19T07:04:38.112Z,902.31
2016-10-19T07:05:38.119Z,902.75
2016-10-19T07:06:38.095Z,903.55
2016-10-19T07:07:38.102Z,903.23
2016-10-19T07:08:38.125Z,902.75
2016-10-19T07:09:38.116Z,902.57
2016-10-19T07:10:38.087Z,902.85
2016-10-19T07:11:38.087Z,903.01
2016-10-19T07:12:38.093Z,903.49
2016-10-19T07:13:38.109Z,903.11
2016-10-19T07:14:38.112Z,903.36
2016-10-19T07:15:38.102Z,903.7
2016-10-19T07:16:38.151Z,903.78
2016-10-19T07:17:38.121Z,903.05
2016-10-19T07:18:38.133Z,903.54
2016-10-19T07:19:38.110Z,903.57
2016-10-19T07:20:38.815Z,903.29
2016-10-19T07:21:38.128Z,903.79
2016-10-19T07:22:38.109Z,903.5
2016-10-19T07:23:38.131Z,903.32
2016-10-19T07:24:38.114Z,902.83
2016-10-19T07:25:38.140Z,902.84
2016-10-19T07:26:38.105Z,902.41
2016-10-19T07:27:38.131Z,903.19
2016-10-19T07:28:38.164Z,902.54
2016-10-19T07:29:38.109Z,902.8
2016-10-19T07:30:38.109Z,902.79
2016-10-19T07:31:38.131Z,902.81
2016-10-19T07:32:38.113Z,902.4
2016-10-19T07:33:38.918Z,901.71
2016-10-19T07:34:38.127Z,901.19
2016-10-19T07:35:38.131Z,900.64
2016-10-19T07:36:38.124Z,900.65
2016-10-19T07:37:38.130Z,900.18
2016-10-19T07:38:38.127Z,899.29
2016-10-19T07:39:38.122Z,898.61
2016-10-19T07:40:38.115Z,897.72
2016-10-19T07:41:38.121Z,897.34
2016-10-19T07:42:38.133Z,897.31
2016-10-19T07:43:38.119Z,896.67
2016-10-19T07:44:38.160Z,896.1
2016-10-19T07:45:38.681Z,895.9
2016-10-19T07:46:38.124Z,895.73
2016-10-19T07:47:38.134Z,895.26
2016-10-19T07:48:38.805Z,894.88
2016-10-19T07:49:38.130Z,895.66
2016-10-19T07:50:38.168Z,895.36
2016-10-19T07:51:38.140Z,895.19
2016-10-19T07:52:38.140Z,895.6
2016-10-19T07:53:38.152Z,895.65
2016-10-19T07:54:38.128Z,895.75
2016-10-19T07:55:38.139Z,895.44
2016-10-19T07:56:38.128Z,896.01
2016-10-19T07:57:38.133Z,895.87
2016-10-19T07:58:38.138Z,896.4
2016-10-19T07:59:38.142Z,897.46
2016-10-19T08:00:38.159Z,898.29
2016-10-19T08:01:38.128Z,898.87
2016-10-19T08:02:38.136Z,899.29
2016-10-19T08:03:38.172Z,899.67
2016-10-19T08:04:38.133Z,899.26
2016-10-19T08:05:38.301Z,899.11
2016-10-19T08:06:38.235Z,898.24
2016-10-19T08:07:38.125Z,897.19
2016-10-19T08:08:38.161Z,896.83
2016-10-19T08:09:38.190Z,895.62
2016-10-19T08:10:38.149Z,894.49
2016-10-19T08:11:38.204Z,892.56
2016-10-19T08:12:38.175Z,891.67
2016-10-19T08:13:38.180Z,890.74
2016-10-19T08:14:38.140Z,890.06
2016-10-19T08:15:38.148Z,889.06
2016-10-19T08:16:38.161Z,888.34
2016-10-19T08:17:38.174Z,887.83
2016-10-19T08:18:39.143Z,886.75
2016-10-19T08:19:38.158Z,885.86
2016-10-19T08:20:38.183Z,885.57
2016-10-19T08:21:38.189Z,885.95
2016-10-19T08:22:38.163Z,885.02
2016-10-19T08:23:38.182Z,885.39
2016-10-19T08:24:38.163Z,884.69
2016-10-19T08:25:38.180Z,885.65
2016-10-19T08:26:38.167Z,885.43
2016-10-19T08:27:38.155Z,887.16
2016-10-19T08:28:38.172Z,887.18
2016-10-19T08:29:38.410Z,887.28
2016-10-19T08:30:38.167Z,887.48
2016-10-19T08:31:38.176Z,887.42
2016-10-19T08:32:38.159Z,887.61
2016-10-19T08:33:38.169Z,886.67
2016-10-19T08:34:38.156Z,886.05
2016-10-19T08:35:38.153Z,886.41
2016-10-19T08:36:38.157Z,885.92
2016-10-19T08:37:38.166Z,885.9
2016-10-19T08:38:38.186Z,885.45
2016-10-19T08:39:38.271Z,884.87
2016-10-19T08:40:38.194Z,884.43
2016-10-19T08:41:38.182Z,883.72
2016-10-19T08:42:38.171Z,884.13
2016-10-19T08:43:38.195Z,883.55
2016-10-19T08:44:38.187Z,883.21
2016-10-19T08:45:38.194Z,883.16
2016-10-19T08:46:38.165Z,882.82
2016-10-19T08:47:38.166Z,881.85
2016-10-19T08:48:38.219Z,881.5
2016-10-19T08:49:38.171Z,881.22
2016-10-19T08:50:38.172Z,881.23
2016-10-19T08:51:38.195Z,880.9
2016-10-19T08:52:38.170Z,880.77
2016-10-19T08:53:38.234Z,880.88
2016-10-19T08:54:38.191Z,881.25
2016-10-19T08:55:38.346Z,881.07
2016-10-19T08:56:38.181Z,880.91
2016-10-19T08:57:38.170Z,880.62
2016-10-19T08:58:38.183Z,880.2
2016-10-19T08:59:38.178Z,879.4
2016-10-19T09:00:38.186Z,879.36
2016-10-19T09:01:38.174Z,878.67
2016-10-19T09:02:38.187Z,877.96
2016-10-19T09:03:38.275Z,877.2
2016-10-19T09:04:38.195Z,876.34
2016-10-19T09:05:38.185Z,876.21
2016-10-19T09:06:38.224Z,876.02
2016-10-19T09:07:38.182Z,876.95
2016-10-19T09:08:38.189Z,877.61
2016-10-19T09:09:38.239Z,877.39
2016-10-19T09:10:38.176Z,877.02
2016-10-19T09:11:38.184Z,875.95
2016-10-19T09:12:38.191Z,875.7
2016-10-19T09:13:38.190Z,875.2
2016-10-19T09:14:38.183Z,875.25
2016-10-19T09:15:38.230Z,873.91
2016-10-19T09:16:38.186Z,873.65
2016-10-19T09:17:38.197Z,873.5
2016-10-19T09:18:38.206Z,874.29
2016-10-19T09:19:38.211Z,874.28
2016-10-19T09:20:38.183Z,875.07
2016-10-19T09:21:38.198Z,876.21
2016-10-19T09:22:38.192Z,877.36
2016-10-19T09:23:38.318Z,878.45
2016-10-19T09:24:38.210Z,879.26
2016-10-19T09:25:38.199Z,879.93
2016-10-19T09:26:38.205Z,881.09
2016-10-19T09:27:38.211Z,881.96
2016-10-19T09:28:38.211Z,883.83
2016-10-19T09:29:38.193Z,884.31
2016-10-19T09:30:38.225Z,884.45
2016-10-19T09:31:38.208Z,884.41
2016-10-19T09:32:38.216Z,884.52
2016-10-19T09:33:38.240Z,884.21
2016-10-19T09:34:38.219Z,884.33
2016-10-19T09:35:38.217Z,884.21
2016-10-19T09:36:38.219Z,883.98
2016-10-19T09:37:38.206Z,884.54
2016-10-19T09:38:38.264Z,884.75
2016-10-19T09:39:38.208Z,885.54
2016-10-19T09:40:38.208Z,886.06
2016-10-19T09:41:38.199Z,886.06
2016-10-19T09:42:38.829Z,886.25
2016-10-19T09:43:38.221Z,887.21
2016-10-19T09:44:38.199Z,888.73
2016-10-19T09:45:38.215Z,889.11
2016-10-19T09:46:38.208Z,889.97
2016-10-19T09:47:38.192Z,890.22
2016-10-19T09:48:38.219Z,890.21
2016-10-19T09:49:38.203Z,892.04
2016-10-19T09:50:38.209Z,893.59
2016-10-19T09:51:38.204Z,894.7
2016-10-19T09:52:38.203Z,896.92
2016-10-19T09:53:38.237Z,898.41
2016-10-19T09:54:38.291Z,899.96
2016-10-19T09:55:38.225Z,901.78
2016-10-19T09:56:38.214Z,902.55
2016-10-19T09:57:38.253Z,903.66
2016-10-19T09:58:38.251Z,905.56
2016-10-19T09:59:38.216Z,906.25
2016-10-19T10:00:38.257Z,907.49
2016-10-19T10:01:38.252Z,908.99
2016-10-19T10:02:38.223Z,910.87
2016-10-19T10:03:38.382Z,912.19
2016-10-19T10:04:38.231Z,913.32
2016-10-19T10:05:38.222Z,914.38
2016-10-19T10:06:38.247Z,915.96
2016-10-19T10:07:38.310Z,917.67
2016-10-19T10:08:38.258Z,919.25
2016-10-19T10:09:38.285Z,921.04
2016-10-19T10:10:38.231Z,922.69
2016-10-19T10:11:38.239Z,925.2
2016-10-19T10:12:38.246Z,928.54
2016-10-19T10:13:38.266Z,931.86
2016-10-19T10:14:38.234Z,933.5
2016-10-19T10:15:38.252Z,934.38
2016-10-19T10:16:38.257Z,935.58
2016-10-19T10:17:38.264Z,936.18
2016-10-19T10:18:38.271Z,936.76
2016-10-19T10:19:38.256Z,937.58
2016-10-19T10:20:38.248Z,938.49
2016-10-19T10:21:38.229Z,939.32
2016-10-19T10:22:38.229Z,940.97
2016-10-19T10:23:38.230Z,942.98
2016-10-19T10:24:38.237Z,944.16
2016-10-19T10:25:38.233Z,945.03
2016-10-19T10:26:38.235Z,946.26
2016-10-19T10:27:38.309Z,948.66
2016-10-19T10:28:38.227Z,950.96
2016-10-19T10:29:38.232Z,952.43
2016-10-19T10:30:38.281Z,953.48
2016-10-19T10:31:38.237Z,955.54
2016-10-19T10:32:38.230Z,957.05
2016-10-19T10:33:38.234Z,958.18
2016-10-19T10:34:38.235Z,959.63
2016-10-19T10:35:38.237Z,961.74
2016-10-19T10:36:38.372Z,964.5
2016-10-19T10:37:38.285Z,964.8
2016-10-19T10:38:38.235Z,965.17
2016-10-19T10:39:38.235Z,964.31
2016-10-19T10:40:38.256Z,964.79
2016-10-19T10:41:38.239Z,963.57
2016-10-19T10:42:38.242Z,960.61
2016-10-19T10:43:38.248Z,958.21
2016-10-19T10:44:38.528Z,954.81
2016-10-19T10:45:38.303Z,951.41
2016-10-19T10:46:38.258Z,948.16
2016-10-19T10:47:38.258Z,944.96
2016-10-19T10:48:38.238Z,942.37
2016-10-19T10:49:38.245Z,939.95
2016-10-19T10:50:38.266Z,937.19
2016-10-19T10:51:38.286Z,934.72
2016-10-19T10:52:38.253Z,932.39
2016-10-19T10:53:38.264Z,930.32
2016-10-19T10:54:38.591Z,928.43
2016-10-19T10:55:38.251Z,927.19
2016-10-19T10:56:38.250Z,926.55
2016-10-19T10:57:38.270Z,925.46
2016-10-19T10:58:38.262Z,923.61
2016-10-19T10:59:38.267Z,922.06
2016-10-19T11:00:38.261Z,921.78
2016-10-19T11:01:38.265Z,921.4
2016-10-19T11:02:38.297Z,921.78
2016-10-19T11:03:38.271Z,923.55
2016-10-19T11:04:38.294Z,926.15
2016-10-19T11:05:38.321Z,930.64
2016-10-19T11:06:38.278Z,935.01
2016-10-19T11:07:38.281Z,938.65
2016-10-19T11:08:38.279Z,941.78
2016-10-19T11:09:38.284Z,943.74
2016-10-19T11:10:38.264Z,946.87
2016-10-19T11:11:38.268Z,951.11
2016-10-19T11:12:38.274Z,956.04
2016-10-19T11:13:38.300Z,961.97
2016-10-19T11:14:38.314Z,968.93
2016-10-19T11:15:38.304Z,975.47
2016-10-19T11:16:38.388Z,981
2016-10-19T11:17:38.271Z,986.62
2016-10-19T11:18:38.284Z,991.04
2016-10-19T11:19:38.271Z,995.35
2016-10-19T11:20:38.276Z,999.87
2016-10-19T11:21:38.281Z,1006.21
2016-10-19T11:22:38.289Z,1016.06
2016-10-19T11:23:38.269Z,1024.64
2016-10-19T11:24:38.295Z,1031.3
2016-10-19T11:25:38.545Z,1038.41
2016-10-19T11:26:38.289Z,1044.76
2016-10-19T11:27:38.310Z,1049.22
2016-10-19T11:28:38.628Z,1055.44
2016-10-19T11:29:38.299Z,1061.65
2016-10-19T11:30:38.270Z,1065.45
2016-10-19T11:31:38.293Z,1066.39
2016-10-19T11:32:38.294Z,1065.75
2016-10-19T11:33:38.315Z,1065.83
2016-10-19T11:34:38.281Z,1065.66
2016-10-19T11:35:38.289Z,1066.07
2016-10-19T11:36:38.325Z,1067.1
2016-10-19T11:37:38.308Z,1066.11
2016-10-19T11:38:38.319Z,1064.47
2016-10-19T11:39:38.292Z,1062.32
2016-10-19T11:40:38.299Z,1060.11
2016-10-19T11:41:38.297Z,1058.41
2016-10-19T11:42:38.290Z,1055.97
2016-10-19T11:43:38.626Z,1054.04
2016-10-19T11:44:38.296Z,1052.45
2016-10-19T11:45:38.312Z,1051.02
2016-10-19T11:46:38.321Z,1049.19
2016-10-19T11:47:38.313Z,1047.13
2016-10-19T11:48:38.311Z,1044.5
2016-10-19T11:49:38.332Z,1042.29
2016-10-19T11:50:38.314Z,1040.46
2016-10-19T11:51:38.305Z,1038.95
2016-10-19T11:52:38.525Z,1037.73
2016-10-19T11:53:38.309Z,1036.5
2016-10-19T11:54:38.308Z,1035.02
2016-10-19T11:55:38.296Z,1034.14
2016-10-19T11:56:38.311Z,1033.01
2016-10-19T11:57:38.311Z,1031.8
2016-10-19T11:58:38.304Z,1030.77
2016-10-19T11:59:38.323Z,1029.68
2016-10-19T12:00:38.329Z,1028.82
2016-10-19T12:01:38.656Z,1028.88
2016-10-19T12:02:38.311Z,1029.07
2016-10-19T12:03:38.355Z,1029.48
2016-10-19T12:04:38.319Z,1030.27
2016-10-19T12:05:38.366Z,1031.57
2016-10-19T12:06:38.308Z,1032.88
2016-10-19T12:07:38.366Z,1034.38
2016-10-19T12:08:38.297Z,1035.82
2016-10-19T12:09:38.320Z,1036.96
2016-10-19T12:10:38.386Z,1037.78
2016-10-19T12:11:38.329Z,1037.52
2016-10-19T12:12:38.319Z,1037.63
2016-10-19T12:13:38.346Z,1037.81
2016-10-19T12:14:38.322Z,1037.43
2016-10-19T12:15:38.314Z,1035.86
2016-10-19T12:16:38.316Z,1033.65
2016-10-19T12:17:38.313Z,1031.05
2016-10-19T12:18:38.334Z,1027.76
2016-10-19T12:19:38.344Z,1023.84
2016-10-19T12:20:38.333Z,1020.09
2016-10-19T12:21:38.338Z,1016
2016-10-19T12:22:38.370Z,1011.98
2016-10-19T12:23:38.349Z,1007.79
2016-10-19T12:24:38.331Z,1003.28
2016-10-19T12:25:38.329Z,998.13
2016-10-19T12:26:38.325Z,992.88
2016-10-19T12:27:38.348Z,986.53
2016-10-19T12:28:38.340Z,979.79